createdAt,value
2023-03-12T00:00:42.820Z,15.40
2023-03-12T00:03:40.766Z,7.90
2023-03-12T00:06:33.179Z,9.10
2023-03-12T00:09:25.219Z,8.00
2023-03-12T00:12:17.213Z,7.90
2023-03-12T00:15:11.259Z,10.30
2023-03-12T00:18:03.228Z,9.00
2023-03-12T00:20:58.645Z,11.90
2023-03-12T00:23:52.486Z,13.70
2023-03-12T00:26:44.758Z,10.90
2023-03-12T00:29:37.012Z,12.10
2023-03-12T00:32:29.236Z,10.30
2023-03-12T00:35:11.491Z,12.50
2023-03-12T00:38:03.777Z,9.00
2023-03-12T00:40:55.989Z,8.30
2023-03-12T00:43:48.534Z,7.60
2023-03-12T00:46:40.551Z,11.10
2023-03-12T00:49:32.721Z,12.50
2023-03-12T00:52:24.884Z,11.10
2023-03-12T00:55:16.987Z,12.70
2023-03-12T00:58:08.981Z,10.80
2023-03-12T01:01:01.199Z,9.80
2023-03-12T01:03:54.121Z,8.90
2023-03-12T01:06:46.391Z,7.60
2023-03-12T01:09:38.961Z,12.10
2023-03-12T01:12:31.059Z,10.60
2023-03-12T01:15:23.344Z,8.60
2023-03-12T01:18:15.448Z,9.60
2023-03-12T01:21:08.342Z,9.20
2023-03-12T01:24:00.450Z,7.80
2023-03-12T01:26:52.707Z,8.10
2023-03-12T01:29:44.802Z,10.30
2023-03-12T01:32:36.881Z,8.40
2023-03-12T01:35:29.049Z,8.00
2023-03-12T01:38:21.148Z,9.10
2023-03-12T01:41:13.135Z,9.50
2023-03-12T01:44:06.601Z,10.00
2023-03-12T01:46:58.610Z,11.00
2023-03-12T01:49:51.615Z,13.60
2023-03-12T01:52:43.755Z,13.70
2023-03-12T01:55:35.908Z,13.30
2023-03-12T01:58:30.334Z,13.60
2023-03-12T02:01:23.255Z,10.90
2023-03-12T02:04:17.293Z,11.00
2023-03-12T02:07:12.332Z,10.20
2023-03-12T02:10:05.448Z,10.00
2023-03-12T02:12:57.603Z,9.00
2023-03-12T02:15:49.687Z,10.50
2023-03-12T02:18:41.889Z,11.80
2023-03-12T02:21:37.187Z,13.90
2023-03-12T02:24:35.095Z,12.30
2023-03-12T02:27:27.272Z,12.40
2023-03-12T02:30:20.535Z,14.70
2023-03-12T02:33:15.051Z,10.30
2023-03-12T02:36:09.140Z,10.60
2023-03-12T02:39:01.164Z,11.30
2023-03-12T02:41:55.295Z,10.90
2023-03-12T02:44:50.423Z,11.90
2023-03-12T02:47:42.471Z,11.60
2023-03-12T02:50:34.475Z,10.50
2023-03-12T02:53:26.512Z,11.90
2023-03-12T02:56:18.486Z,11.30
2023-03-12T02:59:11.794Z,14.80
2023-03-12T03:02:04.451Z,15.50
2023-03-12T03:04:56.509Z,16.10
2023-03-12T03:07:48.559Z,16.50
2023-03-12T03:10:40.604Z,17.00
2023-03-12T03:13:32.692Z,13.60
2023-03-12T03:16:25.521Z,15.00
2023-03-12T03:19:17.547Z,14.10
2023-03-12T03:22:09.584Z,15.10
2023-03-12T03:25:01.631Z,13.10
2023-03-12T03:27:53.741Z,14.20
2023-03-12T03:30:45.782Z,14.70
2023-03-12T03:33:39.656Z,13.50
2023-03-12T03:36:31.720Z,18.20
2023-03-12T03:39:25.190Z,15.70
2023-03-12T03:42:17.226Z,14.80
2023-03-12T03:45:11.467Z,11.50
2023-03-12T03:48:03.666Z,11.10
2023-03-12T03:50:56.165Z,10.40
2023-03-12T03:53:48.193Z,10.90
2023-03-12T03:56:40.897Z,9.80
2023-03-12T03:59:33.126Z,9.80
2023-03-12T04:02:25.295Z,11.80
2023-03-12T04:05:19.575Z,11.30
2023-03-12T04:08:12.101Z,15.40
2023-03-12T04:11:10.103Z,12.40
2023-03-12T04:14:02.089Z,11.20
2023-03-12T04:16:54.111Z,10.70
2023-03-12T04:19:46.199Z,9.30
2023-03-12T04:22:38.419Z,10.80
2023-03-12T04:25:30.490Z,10.20
2023-03-12T04:28:22.477Z,12.20
2023-03-12T04:31:14.897Z,10.30
2023-03-12T04:34:06.877Z,11.80
2023-03-12T04:36:58.981Z,9.70
2023-03-12T04:39:51.284Z,9.90
2023-03-12T04:42:43.292Z,9.50
2023-03-12T04:45:35.292Z,11.70
2023-03-12T04:48:27.989Z,10.90
2023-03-12T04:51:19.988Z,12.00
2023-03-12T04:54:12.138Z,8.80
2023-03-12T04:57:04.310Z,9.50
2023-03-12T04:59:56.570Z,9.90
2023-03-12T05:02:48.433Z,13.60
2023-03-12T05:05:40.560Z,10.00
2023-03-12T05:08:32.515Z,12.60
2023-03-12T05:11:25.083Z,8.60
2023-03-12T05:14:17.050Z,11.10
2023-03-12T05:17:09.120Z,8.80
2023-03-12T05:20:01.467Z,12.60
2023-03-12T05:22:53.477Z,9.60
2023-03-12T05:25:45.457Z,9.00
2023-03-12T05:28:37.432Z,9.40
2023-03-12T05:31:33.228Z,10.00
2023-03-12T05:34:25.281Z,9.10
2023-03-12T05:37:17.345Z,9.80
2023-03-12T05:40:13.798Z,9.80
2023-03-12T05:43:05.933Z,9.40
2023-03-12T05:46:02.068Z,10.60
2023-03-12T05:48:54.498Z,10.40
2023-03-12T05:51:47.758Z,9.20
2023-03-12T05:54:39.989Z,7.90
2023-03-12T05:57:32.069Z,8.60
2023-03-12T06:00:25.110Z,8.60
2023-03-12T06:03:17.388Z,7.10
2023-03-12T06:06:09.771Z,11.40
2023-03-12T06:09:01.883Z,7.40
2023-03-12T06:11:54.029Z,8.30
2023-03-12T06:14:46.080Z,9.70
2023-03-12T06:17:38.258Z,8.90
2023-03-12T06:20:30.328Z,8.00
2023-03-12T06:23:22.394Z,8.50
2023-03-12T06:26:00.412Z,8.30
2023-03-12T06:28:53.448Z,8.30
2023-03-12T06:31:45.636Z,9.30
2023-03-12T06:34:37.800Z,8.80
2023-03-12T06:37:30.308Z,10.10
2023-03-12T06:40:22.930Z,10.00
2023-03-12T06:43:14.903Z,8.90
2023-03-12T06:46:08.681Z,8.50
2023-03-12T06:49:00.689Z,8.60
2023-03-12T06:51:52.712Z,6.80
2023-03-12T06:54:45.170Z,10.00
2023-03-12T06:57:37.702Z,8.40
2023-03-12T07:00:15.014Z,9.90
2023-03-12T07:02:51.960Z,6.50
2023-03-12T07:05:46.828Z,9.40
2023-03-12T07:08:39.140Z,7.40
2023-03-12T07:11:31.273Z,6.60
2023-03-12T07:14:23.563Z,8.50
2023-03-12T07:17:15.729Z,7.80
2023-03-12T07:20:09.680Z,9.20
2023-03-12T07:23:03.040Z,9.00
2023-03-12T07:25:55.765Z,7.10
2023-03-12T07:28:48.246Z,9.80
2023-03-12T07:31:40.720Z,7.60
2023-03-12T07:34:33.025Z,10.10
2023-03-12T07:37:25.624Z,8.50
2023-03-12T07:40:18.598Z,8.30
2023-03-12T07:43:12.754Z,10.00
2023-03-12T07:46:05.101Z,10.90
2023-03-12T07:48:57.419Z,8.60
2023-03-12T07:51:50.224Z,9.30
2023-03-12T07:54:42.766Z,10.10
2023-03-12T07:57:35.216Z,7.90
2023-03-12T08:00:28.672Z,7.80
2023-03-12T08:03:21.395Z,7.80
2023-03-12T08:06:13.757Z,8.60
2023-03-12T08:08:54.986Z,7.50
2023-03-12T08:11:47.265Z,6.90
2023-03-12T08:14:39.713Z,7.90
2023-03-12T08:17:31.871Z,9.90
2023-03-12T08:20:24.158Z,8.20
2023-03-12T08:23:16.302Z,7.60
2023-03-12T08:26:08.671Z,8.00
2023-03-12T08:29:01.284Z,9.80
2023-03-12T08:32:04.195Z,5.20
2023-03-12T08:34:57.687Z,7.30
2023-03-12T08:37:50.150Z,10.20
2023-03-12T08:40:42.561Z,9.80
2023-03-12T08:43:34.711Z,7.00
2023-03-12T08:46:26.847Z,8.60
2023-03-12T08:49:08.315Z,7.20
2023-03-12T08:52:00.780Z,6.20
2023-03-12T08:54:53.232Z,6.10
2023-03-12T08:57:45.586Z,5.00
2023-03-12T09:00:37.707Z,5.00
2023-03-12T09:03:29.846Z,5.10
2023-03-12T09:06:22.224Z,6.00
2023-03-12T09:09:05.184Z,5.00
2023-03-12T09:11:57.488Z,6.20
2023-03-12T09:15:02.992Z,5.20
2023-03-12T09:17:56.503Z,6.10
2023-03-12T09:20:48.821Z,8.80
2023-03-12T09:23:40.862Z,5.20
2023-03-12T09:26:32.891Z,4.90
2023-03-12T09:29:24.948Z,5.80
2023-03-12T09:32:17.249Z,5.00
2023-03-12T09:34:49.389Z,5.00
2023-03-12T09:37:41.508Z,5.70
2023-03-12T09:40:39.913Z,6.70
2023-03-12T09:43:38.488Z,4.00
2023-03-12T09:46:42.331Z,5.50
2023-03-12T09:49:40.613Z,3.10
2023-03-12T09:52:36.852Z,3.60
2023-03-12T09:55:35.839Z,4.30
2023-03-12T09:58:18.368Z,4.50
2023-03-12T10:01:26.470Z,2.80
2023-03-12T10:04:37.819Z,4.00
2023-03-12T10:07:43.975Z,4.20
2023-03-12T10:10:50.900Z,3.90
2023-03-12T10:13:44.937Z,3.50
2023-03-12T10:16:50.221Z,3.80
2023-03-12T10:19:56.923Z,2.00
2023-03-12T10:22:56.713Z,3.00
2023-03-12T10:25:37.459Z,5.20
2023-03-12T10:28:35.556Z,2.70
2023-03-12T10:31:31.973Z,3.10
2023-03-12T10:34:16.559Z,5.70
2023-03-12T10:37:18.331Z,3.00
2023-03-12T10:43:25.324Z,3.10
2023-03-12T10:46:40.290Z,2.30
2023-03-12T10:49:37.738Z,2.80
2023-03-12T10:52:29.796Z,3.60
2023-03-12T10:55:27.454Z,3.00
2023-03-12T10:58:27.316Z,3.20
2023-03-12T11:01:25.597Z,2.50
2023-03-12T11:04:23.118Z,2.60
2023-03-12T11:07:27.699Z,3.50
2023-03-12T11:10:24.954Z,5.20
2023-03-12T11:13:32.040Z,4.40
2023-03-12T11:16:31.972Z,3.80
2023-03-12T11:19:31.967Z,3.50
2023-03-12T11:22:35.545Z,2.70
2023-03-12T11:25:31.754Z,2.80
2023-03-12T11:28:16.240Z,3.70
2023-03-12T11:31:16.967Z,5.10
2023-03-12T11:34:15.796Z,4.10
2023-03-12T11:37:27.286Z,3.40
2023-03-12T11:40:39.133Z,5.50
2023-03-12T11:43:47.780Z,3.80
2023-03-12T11:46:52.299Z,3.50
2023-03-12T11:50:15.691Z,3.80
2023-03-12T11:53:30.705Z,4.10
2023-03-12T11:56:30.635Z,3.40
2023-03-12T11:59:37.239Z,5.70
2023-03-12T12:02:45.538Z,4.40
2023-03-12T12:05:50.413Z,2.50
2023-03-12T12:09:09.020Z,2.70
2023-03-12T12:12:14.795Z,3.40
2023-03-12T12:15:02.051Z,5.20
2023-03-12T12:18:04.123Z,5.40
2023-03-12T12:21:02.362Z,5.00
2023-03-12T12:24:01.510Z,5.50
2023-03-12T12:27:01.282Z,3.40
2023-03-12T12:30:10.395Z,3.90
2023-03-12T12:33:30.747Z,3.30
2023-03-12T12:36:24.943Z,2.60
2023-03-12T12:39:23.284Z,4.10
2023-03-12T12:42:22.306Z,5.50
2023-03-12T12:45:17.895Z,4.70
2023-03-12T12:48:15.518Z,3.50
2023-03-12T12:50:52.252Z,22.10
2023-03-12T12:53:56.618Z,7.20
2023-03-12T12:56:53.611Z,6.40
2023-03-12T12:59:52.570Z,5.40
2023-03-12T13:02:48.945Z,6.20
2023-03-12T13:06:05.035Z,3.70
2023-03-12T13:09:16.531Z,3.70
2023-03-12T13:12:30.418Z,5.70
2023-03-12T13:15:40.114Z,4.20
2023-03-12T13:18:33.395Z,3.30
2023-03-12T13:21:31.976Z,4.70
2023-03-12T13:24:31.090Z,5.00
2023-03-12T13:27:26.234Z,5.50
2023-03-12T13:30:51.395Z,5.20
2023-03-12T13:33:46.215Z,7.80
2023-03-12T13:36:39.712Z,4.20
2023-03-12T13:39:36.554Z,5.20
2023-03-12T13:42:41.859Z,5.50
2023-03-12T13:45:35.396Z,6.10
2023-03-12T13:48:28.183Z,4.00
2023-03-12T13:51:24.250Z,3.30
2023-03-12T13:54:20.222Z,5.10
2023-03-12T13:57:27.162Z,4.20
2023-03-12T14:00:25.688Z,3.40
2023-03-12T14:03:22.551Z,4.70
2023-03-12T14:06:19.338Z,10.50
2023-03-12T14:09:24.073Z,5.00
2023-03-12T14:12:23.658Z,4.60
2023-03-12T14:15:26.521Z,4.00
2023-03-12T14:18:22.382Z,3.90
2023-03-12T14:21:01.492Z,5.10
2023-03-12T14:23:57.724Z,3.00
2023-03-12T14:26:50.029Z,3.30
2023-03-12T14:29:47.933Z,10.20
2023-03-12T14:32:41.426Z,3.60
2023-03-12T14:35:40.694Z,3.50
2023-03-12T14:38:36.196Z,2.80
2023-03-12T14:41:31.252Z,4.70
2023-03-12T14:44:27.033Z,5.10
2023-03-12T14:47:20.654Z,5.30
2023-03-12T14:50:21.523Z,7.30
2023-03-12T14:53:24.481Z,6.30
2023-03-12T14:56:24.702Z,6.20
2023-03-12T14:59:32.145Z,6.20
2023-03-12T15:02:15.769Z,6.60
2023-03-12T15:05:17.034Z,8.40
2023-03-12T15:08:12.661Z,5.70
2023-03-12T15:11:04.938Z,7.90
2023-03-12T15:14:03.219Z,7.30
2023-03-12T15:16:55.693Z,6.90
2023-03-12T15:19:50.368Z,8.10
2023-03-12T15:22:43.174Z,6.10
2023-03-12T15:25:36.592Z,7.00
2023-03-12T15:28:30.291Z,6.10
2023-03-12T15:31:22.627Z,5.40
2023-03-12T15:34:27.224Z,5.70
2023-03-12T15:37:29.715Z,6.70
2023-03-12T15:40:24.728Z,8.50
2023-03-12T15:43:25.136Z,7.20
2023-03-12T15:46:20.199Z,8.40
2023-03-12T15:49:25.004Z,8.20
2023-03-12T15:52:32.180Z,7.80
2023-03-12T15:55:29.394Z,6.50
2023-03-12T15:58:29.872Z,6.10
2023-03-12T16:01:24.052Z,8.20
2023-03-12T16:04:16.612Z,7.90
2023-03-12T16:07:14.885Z,7.00
2023-03-12T16:10:08.581Z,6.30
2023-03-12T16:13:04.825Z,6.50
2023-03-12T16:15:57.703Z,6.30
2023-03-12T16:18:49.827Z,7.50
2023-03-12T16:21:42.126Z,7.70
2023-03-12T16:24:34.097Z,7.40
2023-03-12T16:27:18.078Z,7.30
2023-03-12T16:30:19.515Z,7.20
2023-03-12T16:33:17.123Z,7.60
2023-03-12T16:36:15.795Z,8.10
2023-03-12T16:39:07.975Z,9.20
2023-03-12T16:41:50.703Z,9.30
2023-03-12T16:44:46.191Z,6.90
2023-03-12T16:47:38.769Z,8.90
2023-03-12T16:50:31.320Z,10.00
2023-03-12T16:53:25.191Z,9.00
2023-03-12T16:56:20.336Z,11.30
2023-03-12T16:59:18.463Z,6.80
2023-03-12T17:02:18.144Z,8.40
2023-03-12T17:05:11.156Z,7.60
2023-03-12T17:08:03.674Z,9.30
2023-03-12T17:10:56.683Z,8.90
2023-03-12T17:13:51.690Z,9.60
2023-03-12T17:16:43.831Z,12.00
2023-03-12T17:19:35.932Z,10.40
2023-03-12T17:22:28.599Z,10.70
2023-03-12T17:25:23.975Z,10.60
2023-03-12T17:28:16.420Z,7.50
2023-03-12T17:31:08.976Z,11.50
2023-03-12T17:34:03.951Z,9.20
2023-03-12T17:36:56.223Z,8.70
2023-03-12T17:39:48.876Z,8.20
2023-03-12T17:42:37.330Z,9.30
2023-03-12T17:45:29.666Z,10.10
2023-03-12T17:48:23.496Z,10.50
2023-03-12T17:51:15.480Z,9.90
2023-03-12T17:54:07.543Z,8.60
2023-03-12T17:56:59.564Z,8.50
2023-03-12T17:59:51.964Z,7.40
2023-03-12T18:02:44.471Z,8.60
2023-03-12T18:05:39.032Z,8.00
2023-03-12T18:08:31.244Z,9.10
2023-03-12T18:11:06.166Z,9.20
2023-03-12T18:13:58.134Z,9.00
2023-03-12T18:16:50.084Z,6.90
2023-03-12T18:19:42.393Z,7.70
2023-03-12T18:22:34.654Z,8.20
2023-03-12T18:25:26.672Z,7.00
2023-03-12T18:28:19.299Z,8.80
2023-03-12T18:31:11.440Z,7.50
2023-03-12T18:34:03.658Z,7.30
2023-03-12T18:36:55.702Z,7.70
2023-03-12T18:39:39.073Z,7.40
2023-03-12T18:42:31.036Z,7.20
2023-03-12T18:45:05.780Z,9.30
2023-03-12T18:47:56.194Z,7.60
2023-03-12T18:50:48.451Z,9.90
2023-03-12T18:53:40.607Z,8.80
2023-03-12T18:56:32.796Z,8.70
2023-03-12T18:59:25.246Z,11.30
2023-03-12T19:02:17.784Z,9.10
2023-03-12T19:04:58.652Z,9.70
2023-03-12T19:07:50.988Z,9.40
2023-03-12T19:10:46.063Z,9.10
2023-03-12T19:13:38.120Z,10.50
2023-03-12T19:16:30.953Z,12.30
2023-03-12T19:19:23.140Z,15.00
2023-03-12T19:22:15.168Z,12.20
2023-03-12T19:25:08.135Z,10.90
2023-03-12T19:28:00.177Z,12.90
2023-03-12T19:30:52.202Z,10.40
2023-03-12T19:33:44.866Z,10.10
2023-03-12T19:36:37.012Z,12.50
2023-03-12T19:39:29.508Z,12.40
2023-03-12T19:42:21.924Z,13.70
2023-03-12T19:45:14.851Z,11.70
2023-03-12T19:48:08.623Z,12.50
2023-03-12T19:54:00.297Z,11.20
2023-03-12T19:56:53.465Z,15.00
2023-03-12T19:59:47.268Z,11.80
2023-03-12T20:02:41.846Z,12.10
2023-03-12T20:05:36.720Z,12.20
2023-03-12T20:08:33.701Z,11.60
2023-03-12T20:11:27.188Z,13.30
2023-03-12T20:14:20.420Z,12.70
2023-03-12T20:17:13.687Z,15.40
2023-03-12T20:20:08.890Z,17.20
2023-03-12T20:22:56.227Z,14.40
2023-03-12T20:25:50.882Z,14.90
2023-03-12T20:28:43.178Z,12.10
2023-03-12T20:31:35.708Z,13.10
2023-03-12T20:34:28.159Z,13.10
2023-03-12T20:37:20.846Z,12.90
2023-03-12T20:40:14.568Z,14.80
2023-03-12T20:43:06.736Z,13.90
2023-03-12T20:45:59.028Z,14.90
2023-03-12T20:48:51.185Z,14.40
2023-03-12T20:51:44.614Z,14.30
2023-03-12T20:54:36.628Z,11.80
2023-03-12T20:57:28.939Z,13.90
2023-03-12T21:00:22.438Z,16.30
2023-03-12T21:03:16.836Z,16.30
2023-03-12T21:06:09.265Z,14.90
2023-03-12T21:09:01.319Z,18.70
2023-03-12T21:11:53.548Z,16.70
2023-03-12T21:14:45.492Z,18.10
2023-03-12T21:17:38.863Z,17.80
2023-03-12T21:20:30.941Z,20.10
2023-03-12T21:23:23.001Z,20.00
2023-03-12T21:26:15.042Z,22.10
2023-03-12T21:29:07.136Z,21.00
2023-03-12T21:31:59.122Z,24.50
2023-03-12T21:34:51.956Z,26.40
2023-03-12T21:37:44.018Z,23.80
2023-03-12T21:40:37.666Z,24.70
2023-03-12T21:43:31.171Z,25.00
2023-03-12T21:46:24.865Z,29.40
2023-03-12T21:49:18.249Z,25.60
2023-03-12T21:52:10.379Z,30.60
2023-03-12T21:55:02.339Z,25.90
2023-03-12T21:57:54.372Z,26.80
2023-03-12T22:00:46.382Z,24.50
2023-03-12T22:03:39.104Z,24.80
2023-03-12T22:06:31.226Z,24.20
2023-03-12T22:09:23.280Z,25.60
2023-03-12T22:12:15.282Z,24.70
2023-03-12T22:15:08.991Z,25.90
2023-03-12T22:18:01.011Z,19.60
2023-03-12T22:20:57.905Z,20.00
2023-03-12T22:23:52.364Z,17.40
2023-03-12T22:26:44.418Z,19.20
2023-03-12T22:29:37.516Z,21.30
2023-03-12T22:32:30.279Z,21.00
2023-03-12T22:35:25.926Z,22.90
2023-03-12T22:38:17.970Z,22.00
2023-03-12T22:41:18.790Z,21.90
2023-03-12T22:44:10.841Z,19.10
2023-03-12T22:47:02.889Z,18.20
2023-03-12T22:49:57.588Z,15.00
2023-03-12T22:52:49.624Z,13.50
2023-03-12T22:55:41.562Z,13.70
2023-03-12T22:58:34.315Z,14.20
2023-03-12T23:01:26.786Z,12.10
2023-03-12T23:04:18.883Z,14.30
2023-03-12T23:07:14.484Z,13.40
2023-03-12T23:10:10.815Z,11.50
2023-03-12T23:13:02.813Z,11.10
2023-03-12T23:15:54.905Z,10.10
2023-03-12T23:18:47.724Z,6.60
2023-03-12T23:21:39.646Z,6.40
2023-03-12T23:24:33.369Z,5.30
2023-03-12T23:27:25.335Z,5.30
2023-03-12T23:30:18.202Z,6.70
2023-03-12T23:33:10.194Z,6.20
2023-03-12T23:36:04.349Z,4.80
2023-03-12T23:38:56.853Z,5.00
2023-03-12T23:41:48.872Z,5.30
2023-03-12T23:44:40.902Z,4.70
2023-03-12T23:47:32.948Z,6.70
2023-03-12T23:50:24.916Z,5.00
2023-03-12T23:53:17.049Z,5.60
2023-03-12T23:56:11.579Z,4.40
2023-03-12T23:59:05.144Z,5.40
